createdAt,value
2022-11-26T00:00:33.233Z,86.79
2022-11-26T00:03:00.005Z,86.82
2022-11-26T00:05:31.087Z,86.81
2022-11-26T00:08:00.407Z,86.77
2022-11-26T00:10:29.934Z,86.74
2022-11-26T00:12:57.606Z,86.73
2022-11-26T00:15:26.618Z,86.77
2022-11-26T00:17:53.513Z,86.68
2022-11-26T00:20:24.935Z,86.71
2022-11-26T00:22:55.446Z,86.55
2022-11-26T00:25:25.420Z,86.69
2022-11-26T00:27:54.413Z,86.62
2022-11-26T00:30:25.123Z,86.51
2022-11-26T00:32:53.346Z,86.42
2022-11-26T00:35:21.073Z,86.44
2022-11-26T00:37:48.771Z,86.43
2022-11-26T00:40:24.970Z,86.35
2022-11-26T00:42:52.236Z,86.37
2022-11-26T00:45:25.959Z,86.17
2022-11-26T00:47:53.397Z,86.15
2022-11-26T00:50:23.346Z,86.16
2022-11-26T00:52:53.422Z,85.97
2022-11-26T00:55:25.800Z,85.78
2022-11-26T00:57:52.522Z,86.06
2022-11-26T01:00:22.888Z,85.88
2022-11-26T01:02:52.925Z,85.86
2022-11-26T01:05:20.792Z,85.86
2022-11-26T01:07:47.918Z,85.62
2022-11-26T01:10:18.200Z,85.36
2022-11-26T01:12:45.117Z,85.38
2022-11-26T01:15:13.312Z,85.50
2022-11-26T01:17:40.240Z,85.36
2022-11-26T01:20:30.942Z,85.33
2022-11-26T01:22:58.796Z,85.34
2022-11-26T01:25:26.911Z,85.36
2022-11-26T01:27:54.019Z,85.39
2022-11-26T01:30:26.205Z,85.39
2022-11-26T01:32:52.858Z,85.45
2022-11-26T01:35:20.445Z,85.38
2022-11-26T01:37:47.966Z,85.39
2022-11-26T01:40:26.636Z,85.29
2022-11-26T01:42:59.609Z,85.42
2022-11-26T01:45:26.701Z,85.44
2022-11-26T01:47:53.362Z,85.50
2022-11-26T01:50:29.303Z,85.35
2022-11-26T01:52:57.552Z,85.44
2022-11-26T01:55:26.456Z,85.45
2022-11-26T01:57:53.221Z,85.47
2022-11-26T02:00:19.956Z,85.42
2022-11-26T02:02:46.797Z,85.44
2022-11-26T02:05:29.785Z,85.47
2022-11-26T02:07:57.403Z,85.34
2022-11-26T02:10:24.152Z,85.41
2022-11-26T02:12:51.663Z,85.38
2022-11-26T02:15:18.578Z,85.42
2022-11-26T02:17:52.607Z,85.46
2022-11-26T02:20:34.357Z,85.63
2022-11-26T02:23:18.455Z,85.57
2022-11-26T02:26:03.244Z,85.93
2022-11-26T02:28:57.158Z,86.00
2022-11-26T02:31:47.347Z,85.99
2022-11-26T02:34:17.747Z,86.12
2022-11-26T02:37:06.075Z,86.13
2022-11-26T02:39:32.834Z,86.37
2022-11-26T02:42:04.097Z,86.20
2022-11-26T02:44:39.744Z,86.55
2022-11-26T02:47:11.483Z,86.71
2022-11-26T02:49:40.262Z,86.69
2022-11-26T02:52:08.220Z,86.79
2022-11-26T02:54:37.310Z,86.71
2022-11-26T02:57:07.637Z,86.82
2022-11-26T02:59:35.268Z,86.64
2022-11-26T03:02:17.102Z,86.78
2022-11-26T03:04:50.089Z,86.77
2022-11-26T03:07:18.442Z,86.70
2022-11-26T03:09:57.371Z,86.65
2022-11-26T03:12:24.482Z,86.57
2022-11-26T03:14:51.615Z,86.42
2022-11-26T03:17:18.899Z,86.45
2022-11-26T03:19:46.215Z,86.40
2022-11-26T03:22:14.041Z,86.24
2022-11-26T03:24:41.489Z,86.55
2022-11-26T03:27:08.175Z,86.44
2022-11-26T03:29:34.832Z,86.13
2022-11-26T03:32:01.540Z,86.04
2022-11-26T03:34:28.214Z,86.00
2022-11-26T03:36:54.858Z,85.76
2022-11-26T03:39:21.513Z,85.74
2022-11-26T03:41:48.159Z,85.67
2022-11-26T03:44:15.082Z,85.48
2022-11-26T03:46:42.077Z,85.46
2022-11-26T03:49:08.753Z,85.68
2022-11-26T03:51:35.463Z,85.54
2022-11-26T03:54:02.228Z,85.70
2022-11-26T03:56:29.341Z,85.74
2022-11-26T03:58:55.933Z,85.99
2022-11-26T04:01:22.651Z,86.03
2022-11-26T04:03:49.303Z,86.15
2022-11-26T04:06:17.150Z,86.21
2022-11-26T04:08:43.919Z,86.47
2022-11-26T04:11:10.622Z,86.49
2022-11-26T04:13:37.263Z,86.52
2022-11-26T04:16:03.933Z,86.72
2022-11-26T04:18:30.553Z,86.72
2022-11-26T04:20:57.214Z,86.84
2022-11-26T04:23:24.857Z,86.94
2022-11-26T04:25:51.655Z,87.04
2022-11-26T04:28:18.360Z,87.03
2022-11-26T04:30:45.236Z,86.95
2022-11-26T04:33:11.846Z,87.00
2022-11-26T04:35:38.810Z,87.11
2022-11-26T04:38:05.847Z,87.36
2022-11-26T04:40:32.835Z,87.35
2022-11-26T04:42:59.462Z,87.45
2022-11-26T04:45:26.241Z,87.48
2022-11-26T04:47:53.668Z,87.61
2022-11-26T04:50:20.582Z,87.58
2022-11-26T04:52:48.598Z,87.76
2022-11-26T04:55:16.646Z,87.96
2022-11-26T04:57:43.776Z,88.25
2022-11-26T05:00:11.608Z,88.29
2022-11-26T05:02:38.302Z,88.31
2022-11-26T05:05:05.303Z,88.55
2022-11-26T05:07:32.131Z,88.52
2022-11-26T05:09:58.823Z,88.59
2022-11-26T05:12:25.805Z,88.78
2022-11-26T05:14:52.729Z,89.12
2022-11-26T05:17:19.340Z,89.16
2022-11-26T05:19:46.074Z,89.39
2022-11-26T05:22:12.871Z,89.51
2022-11-26T05:24:39.781Z,89.72
2022-11-26T05:27:06.674Z,89.79
2022-11-26T05:29:33.362Z,89.76
2022-11-26T05:32:00.142Z,89.99
2022-11-26T05:34:27.235Z,90.04
2022-11-26T05:36:54.255Z,90.20
2022-11-26T05:39:20.977Z,90.27
2022-11-26T05:41:47.669Z,90.57
2022-11-26T05:44:14.380Z,90.75
2022-11-26T05:46:42.807Z,91.08
2022-11-26T05:49:09.891Z,91.16
2022-11-26T05:51:36.735Z,91.37
2022-11-26T05:54:03.828Z,91.68
2022-11-26T05:56:30.511Z,92.03
2022-11-26T05:58:57.260Z,92.20
2022-11-26T06:01:24.030Z,92.45
2022-11-26T06:03:50.975Z,92.49
2022-11-26T06:06:17.994Z,92.70
2022-11-26T06:08:44.601Z,92.83
2022-11-26T06:11:14.228Z,93.05
2022-11-26T06:13:40.882Z,93.31
2022-11-26T06:16:09.113Z,93.31
2022-11-26T06:18:39.323Z,93.55
2022-11-26T06:21:07.247Z,94.08
2022-11-26T06:23:34.522Z,93.88
2022-11-26T06:26:01.622Z,93.98
2022-11-26T06:28:28.242Z,94.10
2022-11-26T06:30:54.855Z,94.32
2022-11-26T06:33:21.486Z,94.47
2022-11-26T06:35:48.124Z,94.62
2022-11-26T06:38:14.779Z,94.89
2022-11-26T06:40:41.361Z,94.92
2022-11-26T06:43:08.503Z,94.92
2022-11-26T06:45:36.267Z,95.02
2022-11-26T06:48:03.126Z,95.05
2022-11-26T06:50:29.790Z,95.04
2022-11-26T06:52:56.468Z,94.97
2022-11-26T06:55:23.091Z,94.82
2022-11-26T06:57:51.467Z,94.95
2022-11-26T07:00:18.836Z,94.51
2022-11-26T07:02:45.670Z,94.42
2022-11-26T07:05:12.315Z,94.22
2022-11-26T07:07:39.784Z,94.19
2022-11-26T07:10:07.959Z,93.94
2022-11-26T07:12:34.678Z,93.74
2022-11-26T07:15:01.440Z,93.66
2022-11-26T07:17:29.520Z,93.51
2022-11-26T07:19:56.314Z,93.38
2022-11-26T07:22:22.920Z,93.09
2022-11-26T07:24:49.645Z,92.86
2022-11-26T07:27:16.287Z,92.63
2022-11-26T07:29:42.925Z,92.50
2022-11-26T07:32:09.616Z,92.54
2022-11-26T07:34:36.446Z,92.65
2022-11-26T07:37:03.417Z,92.36
2022-11-26T07:39:30.385Z,92.28
2022-11-26T07:41:57.002Z,92.14
2022-11-26T07:44:23.599Z,92.20
2022-11-26T07:46:50.304Z,91.92
2022-11-26T07:49:17.255Z,91.75
2022-11-26T07:51:44.114Z,91.64
2022-11-26T07:54:10.902Z,91.66
2022-11-26T07:56:37.607Z,91.58
2022-11-26T07:59:04.741Z,91.29
2022-11-26T08:01:32.541Z,91.24
2022-11-26T08:04:00.494Z,91.34
2022-11-26T08:06:29.548Z,91.30
2022-11-26T08:08:58.431Z,91.29
2022-11-26T08:11:27.661Z,91.22
2022-11-26T08:13:56.882Z,90.93
2022-11-26T08:16:23.551Z,90.99
2022-11-26T08:19:08.344Z,90.86
2022-11-26T08:21:36.138Z,90.89
2022-11-26T08:24:03.815Z,90.94
2022-11-26T08:26:35.838Z,90.42
2022-11-26T08:29:05.199Z,90.41
2022-11-26T08:31:31.938Z,90.16
2022-11-26T08:34:00.362Z,90.11
2022-11-26T08:36:28.919Z,90.00
2022-11-26T08:38:56.081Z,90.04
2022-11-26T08:41:23.650Z,89.73
2022-11-26T08:44:07.540Z,89.63
2022-11-26T08:46:40.662Z,89.43
2022-11-26T08:49:12.171Z,89.29
2022-11-26T08:51:39.102Z,89.37
2022-11-26T08:54:05.797Z,88.84
2022-11-26T08:56:32.881Z,88.76
2022-11-26T08:58:59.607Z,88.52
2022-11-26T09:01:32.448Z,88.48
2022-11-26T09:04:00.600Z,88.51
2022-11-26T09:06:29.578Z,88.42
2022-11-26T09:09:15.172Z,88.14
2022-11-26T09:11:54.265Z,88.38
2022-11-26T09:14:25.001Z,88.09
2022-11-26T09:16:53.073Z,87.85
2022-11-26T09:19:19.872Z,87.87
2022-11-26T09:21:47.212Z,87.80
2022-11-26T09:24:14.328Z,87.66
2022-11-26T09:26:41.071Z,87.62
2022-11-26T09:29:08.286Z,87.26
2022-11-26T09:31:35.100Z,87.44
2022-11-26T09:34:02.676Z,87.39
2022-11-26T09:36:29.883Z,87.60
2022-11-26T09:38:58.000Z,87.52
2022-11-26T09:41:27.681Z,87.63
2022-11-26T09:44:03.178Z,87.47
2022-11-26T09:47:13.280Z,87.51
2022-11-26T09:49:58.551Z,87.36
2022-11-26T09:52:30.336Z,87.27
2022-11-26T09:55:05.634Z,87.02
2022-11-26T09:57:41.207Z,87.18
2022-11-26T10:00:22.659Z,87.25
2022-11-26T10:02:52.372Z,87.29
2022-11-26T10:05:21.744Z,87.31
2022-11-26T10:08:04.461Z,87.17
2022-11-26T10:10:45.144Z,87.25
2022-11-26T10:13:22.410Z,87.20
2022-11-26T10:16:19.312Z,87.33
2022-11-26T10:19:07.601Z,87.23
2022-11-26T10:24:36.229Z,87.32
2022-11-26T10:27:13.179Z,87.19
2022-11-26T10:29:43.257Z,87.19
2022-11-26T10:32:28.039Z,87.18
2022-11-26T10:34:57.645Z,87.16
2022-11-26T10:37:26.879Z,87.32
2022-11-26T10:40:11.435Z,87.36
2022-11-26T10:42:43.763Z,87.30
2022-11-26T10:45:24.689Z,87.33
2022-11-26T10:47:51.613Z,87.42
2022-11-26T10:53:21.691Z,87.28
2022-11-26T10:55:49.113Z,87.12
2022-11-26T10:58:31.483Z,87.03
2022-11-26T11:00:59.921Z,86.93
2022-11-26T11:06:21.643Z,86.88
2022-11-26T11:08:51.063Z,86.90
2022-11-26T11:11:29.497Z,86.73
2022-11-26T11:13:56.939Z,86.65
2022-11-26T11:16:29.028Z,86.80
2022-11-26T11:19:00.469Z,86.16
2022-11-26T11:21:34.787Z,85.99
2022-11-26T11:24:21.057Z,85.79
2022-11-26T11:26:50.119Z,85.92
2022-11-26T11:29:30.211Z,85.89
2022-11-26T11:31:57.949Z,85.60
2022-11-26T11:34:32.936Z,85.56
2022-11-26T11:37:03.684Z,85.68
2022-11-26T11:39:33.723Z,85.74
2022-11-26T11:42:03.586Z,85.44
2022-11-26T11:44:44.480Z,85.45
2022-11-26T11:47:39.154Z,85.36
2022-11-26T11:50:16.875Z,85.38
2022-11-26T11:53:15.537Z,85.59
2022-11-26T11:56:02.473Z,85.55
2022-11-26T11:58:47.812Z,85.71
2022-11-26T12:01:42.241Z,85.77
2022-11-26T12:04:42.844Z,86.00
2022-11-26T12:07:28.206Z,85.91
2022-11-26T12:10:08.961Z,86.02
2022-11-26T12:12:38.970Z,86.02
2022-11-26T12:15:23.534Z,85.96
2022-11-26T12:17:57.152Z,86.22
2022-11-26T12:20:50.470Z,86.11
2022-11-26T12:23:34.088Z,86.22
2022-11-26T12:26:56.549Z,86.41
2022-11-26T12:29:49.631Z,86.57
2022-11-26T12:32:36.995Z,86.38
2022-11-26T12:35:12.196Z,86.68
2022-11-26T12:37:42.715Z,86.69
2022-11-26T12:40:24.597Z,86.71
2022-11-26T12:43:00.511Z,86.79
2022-11-26T12:45:42.793Z,86.70
2022-11-26T12:48:15.358Z,86.91
2022-11-26T12:50:51.742Z,87.08
2022-11-26T12:53:37.137Z,87.11
2022-11-26T12:56:25.165Z,87.13
2022-11-26T12:59:13.558Z,87.44
2022-11-26T13:01:40.278Z,87.45
2022-11-26T13:04:37.253Z,87.74
2022-11-26T13:06:56.363Z,88.16
2022-11-26T13:09:41.588Z,88.06
2022-11-26T13:12:18.716Z,88.39
2022-11-26T13:14:56.716Z,88.73
2022-11-26T13:17:37.819Z,88.80
2022-11-26T13:20:23.086Z,88.86
2022-11-26T13:23:15.472Z,89.28
2022-11-26T13:26:13.818Z,89.50
2022-11-26T13:29:23.480Z,89.84
2022-11-26T13:32:09.842Z,90.10
2022-11-26T13:34:54.392Z,90.12
2022-11-26T13:37:40.383Z,90.37
2022-11-26T13:40:25.358Z,90.46
2022-11-26T13:43:16.929Z,90.76
2022-11-26T13:46:02.419Z,90.73
2022-11-26T13:48:47.270Z,90.72
2022-11-26T13:51:37.607Z,90.65
2022-11-26T13:54:10.026Z,90.96
2022-11-26T13:56:38.322Z,90.86
2022-11-26T13:59:16.290Z,90.91
2022-11-26T14:01:43.075Z,91.23
2022-11-26T14:04:16.079Z,91.50
2022-11-26T14:07:04.387Z,91.59
2022-11-26T14:09:43.227Z,91.58
2022-11-26T14:12:11.693Z,91.93
2022-11-26T14:14:40.331Z,91.84
2022-11-26T14:17:07.154Z,92.00
2022-11-26T14:19:39.668Z,92.04
2022-11-26T14:22:21.282Z,92.20
2022-11-26T14:24:51.012Z,92.10
2022-11-26T14:27:25.005Z,92.10
2022-11-26T14:29:57.629Z,92.25
2022-11-26T14:32:26.791Z,92.26
2022-11-26T14:34:56.281Z,92.27
2022-11-26T14:37:26.211Z,92.14
2022-11-26T14:39:59.152Z,92.35
2022-11-26T14:42:26.186Z,92.51
2022-11-26T14:45:02.631Z,92.46
2022-11-26T14:47:30.989Z,92.48
2022-11-26T14:50:04.647Z,92.26
2022-11-26T14:52:35.648Z,92.43
2022-11-26T14:55:24.040Z,92.62
2022-11-26T14:57:55.132Z,92.53
2022-11-26T15:00:28.343Z,92.43
2022-11-26T15:02:55.293Z,92.33
2022-11-26T15:05:22.044Z,92.51
2022-11-26T15:07:57.591Z,92.72
2022-11-26T15:10:24.811Z,92.49
2022-11-26T15:12:53.467Z,92.57
2022-11-26T15:15:23.767Z,92.67
2022-11-26T15:17:57.877Z,92.87
2022-11-26T15:20:25.872Z,92.89
2022-11-26T15:22:59.119Z,93.45
2022-11-26T15:25:34.263Z,93.40
2022-11-26T15:28:25.192Z,93.34
2022-11-26T15:31:03.138Z,93.74
2022-11-26T15:33:32.799Z,93.65
2022-11-26T15:36:00.346Z,93.89
2022-11-26T15:38:32.751Z,94.06
2022-11-26T15:41:05.552Z,94.33
2022-11-26T15:43:44.652Z,94.34
2022-11-26T15:46:14.239Z,94.51
2022-11-26T15:48:53.129Z,94.62
2022-11-26T15:51:22.830Z,94.70
2022-11-26T15:53:50.637Z,94.69
2022-11-26T15:56:24.850Z,94.73
2022-11-26T15:58:56.386Z,94.92
2022-11-26T16:01:26.245Z,94.93
2022-11-26T16:03:54.565Z,95.33
2022-11-26T16:06:39.664Z,95.49
2022-11-26T16:09:10.680Z,95.67
2022-11-26T16:11:57.615Z,95.77
2022-11-26T16:14:40.761Z,96.01
2022-11-26T16:17:16.701Z,95.95
2022-11-26T16:19:54.606Z,96.21
2022-11-26T16:22:27.081Z,96.57
2022-11-26T16:25:01.336Z,96.79
2022-11-26T16:27:29.595Z,97.06
2022-11-26T16:29:56.278Z,97.13
2022-11-26T16:32:22.972Z,97.56
2022-11-26T16:34:49.671Z,97.66
2022-11-26T16:37:27.300Z,97.83
2022-11-26T16:40:10.050Z,98.21
2022-11-26T16:42:37.514Z,98.54
2022-11-26T16:45:05.148Z,98.92
2022-11-26T16:47:36.490Z,99.04
2022-11-26T16:50:03.981Z,99.20
2022-11-26T16:52:30.766Z,99.42
2022-11-26T16:54:59.599Z,99.55
2022-11-26T16:57:27.962Z,99.86
2022-11-26T16:59:59.967Z,99.71
2022-11-26T17:02:26.860Z,100.00
2022-11-26T17:04:53.499Z,100.00
2022-11-26T17:07:35.695Z,100.00
2022-11-26T17:10:03.701Z,100.00
2022-11-26T17:12:30.355Z,100.00
2022-11-26T17:14:56.988Z,100.00
2022-11-26T17:17:28.567Z,100.00
2022-11-26T17:19:56.793Z,100.00
2022-11-26T17:22:26.828Z,100.00
2022-11-26T17:24:53.469Z,100.00
2022-11-26T17:27:23.473Z,100.00
2022-11-26T17:29:50.463Z,100.00
2022-11-26T17:32:19.126Z,100.00
2022-11-26T17:34:46.534Z,100.00
2022-11-26T17:37:40.756Z,100.00
2022-11-26T17:40:35.038Z,100.00
2022-11-26T17:43:01.807Z,100.00
2022-11-26T17:45:28.654Z,100.00
2022-11-26T17:47:55.557Z,100.00
2022-11-26T17:50:26.020Z,100.00
2022-11-26T17:52:54.904Z,100.00
2022-11-26T17:55:23.841Z,100.00
2022-11-26T17:57:50.817Z,100.00
2022-11-26T18:00:24.746Z,100.00
2022-11-26T18:02:52.153Z,100.00
2022-11-26T18:05:19.377Z,100.00
2022-11-26T18:07:46.292Z,100.00
2022-11-26T18:10:18.776Z,100.00
2022-11-26T18:12:46.009Z,100.00
2022-11-26T18:15:21.278Z,100.00
2022-11-26T18:17:51.076Z,100.00
2022-11-26T18:20:21.579Z,100.00
2022-11-26T18:22:53.925Z,100.00
2022-11-26T18:25:20.785Z,100.00
2022-11-26T18:27:47.502Z,100.00
2022-11-26T18:30:14.542Z,100.00
2022-11-26T18:32:41.390Z,100.00
2022-11-26T18:35:08.621Z,100.00
2022-11-26T18:37:38.773Z,100.00
2022-11-26T18:40:08.140Z,100.00
2022-11-26T18:42:37.490Z,100.00
2022-11-26T18:45:09.958Z,100.00
2022-11-26T18:47:38.137Z,100.00
2022-11-26T18:50:06.938Z,100.00
2022-11-26T18:52:34.091Z,100.00
2022-11-26T18:55:05.211Z,100.00
2022-11-26T18:57:32.555Z,100.00
2022-11-26T18:59:59.297Z,100.00
2022-11-26T19:02:28.967Z,100.00
2022-11-26T19:04:55.841Z,100.00
2022-11-26T19:07:22.798Z,100.00
2022-11-26T19:09:49.643Z,100.00
2022-11-26T19:12:16.506Z,100.00
2022-11-26T19:14:43.328Z,100.00
2022-11-26T19:17:10.419Z,100.00
2022-11-26T19:19:38.275Z,100.00
2022-11-26T19:22:05.497Z,100.00
2022-11-26T19:24:32.350Z,100.00
2022-11-26T19:26:59.161Z,100.00
2022-11-26T19:29:25.984Z,100.00
2022-11-26T19:31:53.979Z,100.00
2022-11-26T19:34:21.033Z,100.00
2022-11-26T19:36:49.162Z,100.00
2022-11-26T19:39:16.946Z,100.00
2022-11-26T19:41:44.195Z,100.00
2022-11-26T19:44:12.046Z,100.00
2022-11-26T19:46:41.375Z,100.00
2022-11-26T19:49:12.263Z,100.00
2022-11-26T19:51:40.676Z,100.00
2022-11-26T19:54:08.169Z,100.00
2022-11-26T19:56:35.614Z,100.00
2022-11-26T19:59:03.094Z,100.00
2022-11-26T20:01:32.877Z,100.00
2022-11-26T20:04:04.954Z,100.00
2022-11-26T20:06:33.720Z,100.00
2022-11-26T20:09:00.837Z,100.00
2022-11-26T20:11:28.911Z,100.00
2022-11-26T20:13:56.957Z,100.00
2022-11-26T20:16:27.029Z,100.00
2022-11-26T20:18:53.967Z,100.00
2022-11-26T20:21:23.822Z,100.00
2022-11-26T20:23:51.869Z,100.00
2022-11-26T20:26:22.002Z,100.00
2022-11-26T20:28:50.058Z,100.00
2022-11-26T20:31:23.382Z,100.00
2022-11-26T20:33:53.223Z,100.00
2022-11-26T20:36:23.223Z,100.00
2022-11-26T20:38:55.295Z,100.00
2022-11-26T20:41:24.459Z,100.00
2022-11-26T20:43:56.560Z,100.00
2022-11-26T20:46:25.982Z,100.00
2022-11-26T20:48:53.988Z,100.00
2022-11-26T20:51:22.360Z,100.00
2022-11-26T20:53:50.959Z,100.00
2022-11-26T20:56:23.050Z,100.00
2022-11-26T20:58:51.157Z,100.00
2022-11-26T21:01:27.923Z,100.00
2022-11-26T21:03:55.557Z,100.00
2022-11-26T21:06:29.926Z,100.00
2022-11-26T21:09:01.945Z,100.00
2022-11-26T21:11:29.862Z,100.00
2022-11-26T21:14:00.164Z,100.00
2022-11-26T21:16:28.469Z,100.00
2022-11-26T21:18:55.721Z,100.00
2022-11-26T21:21:24.033Z,100.00
2022-11-26T21:23:51.148Z,100.00
2022-11-26T21:26:23.035Z,100.00
2022-11-26T21:28:53.974Z,100.00
2022-11-26T21:31:22.028Z,99.55
2022-11-26T21:33:59.034Z,99.12
2022-11-26T21:36:26.835Z,98.55
2022-11-26T21:38:55.218Z,96.73
2022-11-26T21:41:23.434Z,95.89
2022-11-26T21:43:52.034Z,95.19
2022-11-26T21:46:25.418Z,94.58
2022-11-26T21:48:53.524Z,93.67
2022-11-26T21:51:21.122Z,92.93
2022-11-26T21:53:49.780Z,92.41
2022-11-26T21:56:20.625Z,91.42
2022-11-26T21:58:48.060Z,91.25
2022-11-26T22:01:24.595Z,90.78
2022-11-26T22:03:54.362Z,90.28
2022-11-26T22:06:23.144Z,89.95
2022-11-26T22:08:52.462Z,89.50
2022-11-26T22:11:22.129Z,89.32
2022-11-26T22:13:54.712Z,89.10
2022-11-26T22:16:23.798Z,88.83
2022-11-26T22:18:51.899Z,88.23
2022-11-26T22:21:22.522Z,88.32
2022-11-26T22:23:50.669Z,88.02
2022-11-26T22:26:19.645Z,87.45
2022-11-26T22:28:47.412Z,86.93
2022-11-26T22:31:24.625Z,86.77
2022-11-26T22:33:57.188Z,86.46
2022-11-26T22:36:24.900Z,86.62
2022-11-26T22:38:52.657Z,86.49
2022-11-26T22:41:20.592Z,86.30
2022-11-26T22:43:49.414Z,85.99
2022-11-26T22:46:19.225Z,85.91
2022-11-26T22:49:13.304Z,85.88
2022-11-26T22:51:40.368Z,85.47
2022-11-26T22:54:10.023Z,85.38
2022-11-26T22:56:38.036Z,85.03
2022-11-26T22:59:07.382Z,84.45
2022-11-26T23:01:36.302Z,83.99
2022-11-26T23:04:06.525Z,83.19
2022-11-26T23:06:35.589Z,82.31
2022-11-26T23:09:05.875Z,81.83
2022-11-26T23:11:39.352Z,81.14
2022-11-26T23:14:07.684Z,80.78
2022-11-26T23:16:36.349Z,80.89
2022-11-26T23:19:04.141Z,80.52
2022-11-26T23:21:38.574Z,80.52
2022-11-26T23:24:06.028Z,80.28
2022-11-26T23:26:34.669Z,80.33
2022-11-26T23:29:02.473Z,80.29
2022-11-26T23:31:34.801Z,80.30
2022-11-26T23:34:02.875Z,80.08
2022-11-26T23:36:30.543Z,79.89
2022-11-26T23:39:00.462Z,80.02
2022-11-26T23:41:28.722Z,79.95
2022-11-26T23:43:55.917Z,79.96
2022-11-26T23:46:26.570Z,79.91
2022-11-26T23:48:55.200Z,79.91
2022-11-26T23:51:24.941Z,79.85
2022-11-26T23:53:53.072Z,79.67
2022-11-26T23:56:22.931Z,79.68
2022-11-26T23:58:54.480Z,79.42
